createdAt,value
2022-10-18T00:00:53.087Z,5.60
2022-10-18T00:03:20.824Z,4.73
2022-10-18T00:05:49.088Z,4.80
2022-10-18T00:08:17.299Z,5.07
2022-10-18T00:10:45.390Z,5.50
2022-10-18T00:13:14.717Z,5.50
2022-10-18T00:15:49.943Z,4.82
2022-10-18T00:18:17.683Z,5.40
2022-10-18T00:20:45.435Z,5.57
2022-10-18T00:23:13.389Z,5.70
2022-10-18T00:25:41.068Z,5.90
2022-10-18T00:28:08.791Z,5.73
2022-10-18T00:30:38.003Z,6.53
2022-10-18T00:33:05.724Z,6.67
2022-10-18T00:35:36.085Z,6.35
2022-10-18T00:38:03.831Z,6.60
2022-10-18T00:40:31.541Z,7.27
2022-10-18T00:42:59.275Z,7.47
2022-10-18T00:45:27.211Z,7.70
2022-10-18T00:48:01.125Z,7.95
2022-10-18T00:50:33.999Z,7.20
2022-10-18T00:53:04.238Z,8.40
2022-10-18T00:55:35.024Z,7.63
2022-10-18T00:58:02.963Z,8.05
2022-10-18T01:00:30.773Z,8.95
2022-10-18T01:03:00.465Z,8.77
2022-10-18T01:05:28.491Z,7.97
2022-10-18T01:08:25.510Z,8.65
2022-10-18T01:11:02.195Z,8.48
2022-10-18T01:13:43.819Z,8.43
2022-10-18T01:16:21.177Z,7.85
2022-10-18T01:19:00.003Z,8.25
2022-10-18T01:21:39.352Z,8.05
2022-10-18T01:24:37.978Z,8.48
2022-10-18T01:27:28.734Z,8.07
2022-10-18T01:30:11.463Z,8.52
2022-10-18T01:32:45.772Z,8.07
2022-10-18T01:35:17.927Z,7.30
2022-10-18T01:37:49.504Z,8.10
2022-10-18T01:40:20.556Z,7.97
2022-10-18T01:42:50.687Z,8.02
2022-10-18T01:45:20.122Z,8.77
2022-10-18T01:47:49.731Z,8.65
2022-10-18T01:50:29.974Z,10.85
2022-10-18T01:52:58.307Z,8.00
2022-10-18T01:55:31.472Z,8.02
2022-10-18T01:58:06.931Z,7.50
2022-10-18T02:00:41.052Z,6.80
2022-10-18T02:03:18.284Z,8.07
2022-10-18T02:05:52.552Z,7.53
2022-10-18T02:08:29.257Z,8.50
2022-10-18T02:11:01.860Z,8.45
2022-10-18T02:13:35.328Z,8.27
2022-10-18T02:16:08.935Z,7.72
2022-10-18T02:18:42.446Z,8.77
2022-10-18T02:21:14.559Z,8.07
2022-10-18T02:23:44.327Z,7.68
2022-10-18T02:26:12.082Z,8.40
2022-10-18T02:28:40.329Z,8.35
2022-10-18T02:31:16.631Z,7.97
2022-10-18T02:33:51.743Z,8.43
2022-10-18T02:36:23.382Z,7.60
2022-10-18T02:38:55.471Z,7.57
2022-10-18T02:41:25.679Z,8.43
2022-10-18T02:43:53.692Z,7.82
2022-10-18T02:46:21.688Z,8.23
2022-10-18T02:48:50.946Z,9.00
2022-10-18T02:51:18.975Z,8.53
2022-10-18T02:53:46.699Z,8.23
2022-10-18T02:56:14.402Z,9.18
2022-10-18T02:58:42.102Z,7.90
2022-10-18T03:01:09.885Z,8.53
2022-10-18T03:03:37.674Z,8.07
2022-10-18T03:06:07.122Z,8.60
2022-10-18T03:08:34.881Z,8.70
2022-10-18T03:11:02.605Z,9.15
2022-10-18T03:16:03.038Z,9.60
2022-10-18T03:18:30.811Z,9.03
2022-10-18T03:20:58.529Z,8.17
2022-10-18T03:23:27.810Z,8.40
2022-10-18T03:25:55.531Z,8.65
2022-10-18T03:28:23.296Z,8.77
2022-10-18T03:30:51.119Z,8.37
2022-10-18T03:33:18.869Z,8.10
2022-10-18T03:35:46.575Z,8.23
2022-10-18T03:38:14.293Z,8.57
2022-10-18T03:40:43.352Z,9.02
2022-10-18T03:43:11.101Z,9.57
2022-10-18T03:45:38.856Z,8.60
2022-10-18T03:48:07.188Z,8.80
2022-10-18T03:50:35.095Z,9.05
2022-10-18T03:53:02.906Z,9.53
2022-10-18T03:55:30.611Z,8.87
2022-10-18T03:57:59.737Z,8.30
2022-10-18T04:00:27.540Z,8.48
2022-10-18T04:02:56.095Z,8.27
2022-10-18T04:05:26.813Z,8.82
2022-10-18T04:07:54.791Z,9.13
2022-10-18T04:10:22.556Z,9.43
2022-10-18T04:12:50.647Z,9.10
2022-10-18T04:15:19.863Z,8.83
2022-10-18T04:17:47.848Z,8.33
2022-10-18T04:20:15.859Z,9.63
2022-10-18T04:22:43.591Z,8.83
2022-10-18T04:25:11.287Z,8.73
2022-10-18T04:27:39.021Z,9.10
2022-10-18T04:30:07.842Z,9.23
2022-10-18T04:32:37.186Z,9.23
2022-10-18T04:35:06.186Z,8.82
2022-10-18T04:37:34.143Z,8.97
2022-10-18T04:40:02.234Z,8.93
2022-10-18T04:42:30.035Z,8.68
2022-10-18T04:44:57.741Z,9.40
2022-10-18T04:47:25.515Z,9.37
2022-10-18T04:49:54.597Z,9.10
2022-10-18T04:52:22.323Z,9.52
2022-10-18T04:54:50.246Z,9.68
2022-10-18T04:57:18.056Z,10.20
2022-10-18T04:59:46.059Z,8.63
2022-10-18T05:02:13.813Z,9.13
2022-10-18T05:04:41.558Z,9.03
2022-10-18T05:07:10.767Z,9.53
2022-10-18T05:09:38.472Z,8.17
2022-10-18T05:12:06.382Z,9.27
2022-10-18T05:14:34.114Z,10.38
2022-10-18T05:17:01.834Z,9.85
2022-10-18T05:19:29.555Z,9.20
2022-10-18T05:21:57.306Z,9.30
2022-10-18T05:24:27.770Z,10.48
2022-10-18T05:26:55.890Z,10.32
2022-10-18T05:29:24.003Z,9.97
2022-10-18T05:31:51.951Z,9.63
2022-10-18T05:34:20.629Z,10.50
2022-10-18T05:36:49.368Z,10.48
2022-10-18T05:39:17.067Z,10.53
2022-10-18T05:41:46.132Z,10.10
2022-10-18T05:44:13.847Z,12.20
2022-10-18T05:46:41.629Z,11.05
2022-10-18T05:49:11.143Z,11.52
2022-10-18T05:51:38.868Z,12.32
2022-10-18T05:54:06.760Z,10.73
2022-10-18T05:56:34.576Z,11.33
2022-10-18T05:59:05.079Z,11.40
2022-10-18T06:01:32.794Z,11.32
2022-10-18T06:04:00.527Z,11.23
2022-10-18T06:06:28.210Z,13.05
2022-10-18T06:08:55.973Z,11.73
2022-10-18T06:11:23.979Z,12.13
2022-10-18T06:13:53.225Z,11.52
2022-10-18T06:16:27.243Z,10.57
2022-10-18T06:18:59.793Z,11.83
2022-10-18T06:21:27.567Z,11.23
2022-10-18T06:23:57.223Z,11.70
2022-10-18T06:26:25.610Z,11.30
2022-10-18T06:28:53.486Z,11.43
2022-10-18T06:31:22.681Z,11.13
2022-10-18T06:33:51.102Z,11.40
2022-10-18T06:36:21.984Z,11.40
2022-10-18T06:38:49.891Z,10.63
2022-10-18T06:41:19.185Z,11.70
2022-10-18T06:43:49.580Z,11.77
2022-10-18T06:46:17.423Z,12.07
2022-10-18T06:48:47.173Z,12.18
2022-10-18T06:51:15.178Z,10.83
2022-10-18T06:53:53.458Z,11.20
2022-10-18T06:56:31.067Z,11.35
2022-10-18T06:59:01.426Z,11.23
2022-10-18T07:01:29.366Z,12.05
2022-10-18T07:03:59.835Z,11.40
2022-10-18T07:06:27.561Z,11.30
2022-10-18T07:08:55.398Z,11.70
2022-10-18T07:11:25.398Z,12.97
2022-10-18T07:13:55.022Z,12.90
2022-10-18T07:16:23.092Z,12.52
2022-10-18T07:18:52.063Z,12.80
2022-10-18T07:21:23.714Z,13.63
2022-10-18T07:23:52.529Z,13.52
2022-10-18T07:26:22.362Z,13.50
2022-10-18T07:28:54.144Z,13.57
2022-10-18T07:31:22.633Z,13.68
2022-10-18T07:33:50.405Z,13.32
2022-10-18T07:36:18.245Z,12.95
2022-10-18T07:38:47.301Z,12.83
2022-10-18T07:41:15.873Z,12.90
2022-10-18T07:43:45.752Z,13.80
2022-10-18T07:46:14.977Z,13.00
2022-10-18T07:48:42.704Z,12.30
2022-10-18T07:51:11.334Z,11.55
2022-10-18T07:53:39.460Z,13.20
2022-10-18T07:56:15.920Z,12.00
2022-10-18T07:58:44.285Z,11.63
2022-10-18T08:01:12.439Z,10.48
2022-10-18T08:03:40.875Z,11.63
2022-10-18T08:06:10.834Z,10.43
2022-10-18T08:08:39.960Z,13.00
2022-10-18T08:11:11.550Z,12.87
2022-10-18T08:13:39.344Z,13.57
2022-10-18T08:16:09.076Z,13.02
2022-10-18T08:18:37.806Z,14.18
2022-10-18T08:21:07.927Z,14.70
2022-10-18T08:23:36.656Z,14.65
2022-10-18T08:26:05.468Z,15.07
2022-10-18T08:28:36.663Z,14.98
2022-10-18T08:31:05.312Z,15.55
2022-10-18T08:33:33.957Z,16.88
2022-10-18T08:36:05.664Z,15.93
2022-10-18T08:38:34.404Z,16.08
2022-10-18T08:41:14.383Z,17.30
2022-10-18T08:43:48.359Z,20.67
2022-10-18T08:46:16.143Z,22.38
2022-10-18T08:48:48.371Z,21.98
2022-10-18T08:51:28.324Z,22.33
2022-10-18T08:54:03.807Z,22.45
2022-10-18T08:56:33.804Z,25.60
2022-10-18T08:59:04.887Z,23.33
2022-10-18T09:01:45.699Z,24.90
2022-10-18T09:04:31.266Z,25.10
2022-10-18T09:07:16.258Z,25.30
2022-10-18T09:09:51.340Z,23.77
2022-10-18T09:12:35.984Z,26.15
2022-10-18T09:15:28.959Z,24.88
2022-10-18T09:18:10.248Z,24.17
2022-10-18T09:20:48.871Z,24.98
2022-10-18T09:23:20.907Z,24.57
2022-10-18T09:25:50.726Z,24.70
2022-10-18T09:28:32.606Z,25.55
2022-10-18T09:31:10.948Z,25.80
2022-10-18T09:33:46.865Z,26.48
2022-10-18T09:36:20.271Z,27.35
2022-10-18T09:38:50.880Z,27.35
2022-10-18T09:41:24.071Z,26.17
2022-10-18T09:43:58.033Z,26.30
2022-10-18T09:46:32.716Z,28.33
2022-10-18T09:49:05.242Z,30.25
2022-10-18T09:51:37.946Z,28.70
2022-10-18T09:54:21.186Z,28.75
2022-10-18T09:56:51.976Z,29.57
2022-10-18T09:59:33.415Z,28.93
2022-10-18T10:02:02.641Z,28.77
2022-10-18T10:04:30.670Z,29.83
2022-10-18T10:07:01.267Z,30.23
2022-10-18T10:09:30.839Z,29.03
2022-10-18T10:11:59.581Z,30.40
2022-10-18T10:14:30.277Z,29.38
2022-10-18T10:17:02.163Z,29.88
2022-10-18T10:19:34.379Z,29.27
2022-10-18T10:22:06.447Z,31.10
2022-10-18T10:24:42.923Z,30.15
2022-10-18T10:27:19.376Z,28.93
2022-10-18T10:29:57.671Z,30.30
2022-10-18T10:32:32.141Z,29.05
2022-10-18T10:35:01.283Z,28.45
2022-10-18T10:37:35.765Z,29.90
2022-10-18T10:40:28.569Z,28.87
2022-10-18T10:43:36.643Z,28.23
2022-10-18T10:46:09.620Z,28.15
2022-10-18T10:48:46.339Z,28.33
2022-10-18T10:51:18.206Z,28.73
2022-10-18T10:53:52.379Z,28.90
2022-10-18T10:56:26.660Z,28.27
2022-10-18T10:58:56.688Z,28.07
2022-10-18T11:01:31.505Z,28.30
2022-10-18T11:04:01.769Z,27.60
2022-10-18T11:06:40.330Z,27.92
2022-10-18T11:09:19.131Z,30.00
2022-10-18T11:11:59.227Z,30.27
2022-10-18T11:14:31.463Z,33.15
2022-10-18T11:17:08.505Z,33.33
2022-10-18T11:19:43.947Z,34.10
2022-10-18T11:22:18.468Z,35.22
2022-10-18T11:24:46.215Z,32.88
2022-10-18T11:27:23.687Z,32.10
2022-10-18T11:30:04.260Z,33.70
2022-10-18T11:32:41.787Z,33.50
2022-10-18T11:35:27.722Z,35.78
2022-10-18T11:38:10.292Z,35.90
2022-10-18T11:40:54.906Z,36.67
2022-10-18T11:43:34.434Z,36.97
2022-10-18T11:46:25.291Z,38.55
2022-10-18T11:49:16.127Z,38.33
2022-10-18T11:52:07.830Z,38.75
2022-10-18T11:54:53.368Z,40.85
2022-10-18T11:57:35.599Z,42.13
2022-10-18T12:00:16.106Z,44.95
2022-10-18T12:03:01.599Z,43.75
2022-10-18T12:05:30.915Z,44.30
2022-10-18T12:08:03.549Z,43.85
2022-10-18T12:10:45.771Z,42.40
2022-10-18T12:13:28.928Z,42.50
2022-10-18T12:15:56.929Z,40.53
2022-10-18T12:18:26.789Z,40.97
2022-10-18T12:20:57.125Z,42.90
2022-10-18T12:23:35.602Z,44.13
2022-10-18T12:26:06.931Z,47.40
2022-10-18T12:28:45.975Z,51.08
2022-10-18T12:31:21.891Z,50.70
2022-10-18T12:33:53.471Z,51.60
2022-10-18T12:36:42.060Z,51.65
2022-10-18T12:39:21.532Z,48.97
2022-10-18T12:41:58.482Z,48.08
2022-10-18T12:44:32.143Z,48.58
2022-10-18T12:47:01.901Z,47.05
2022-10-18T12:49:32.281Z,45.42
2022-10-18T12:52:02.756Z,44.13
2022-10-18T12:54:32.899Z,41.50
2022-10-18T12:57:03.571Z,40.20
2022-10-18T12:59:52.180Z,38.17
2022-10-18T13:02:29.187Z,37.38
2022-10-18T13:05:02.244Z,35.97
2022-10-18T13:07:40.931Z,34.05
2022-10-18T13:10:42.224Z,31.97
2022-10-18T13:13:44.696Z,30.87
2022-10-18T13:16:30.416Z,27.33
2022-10-18T13:19:00.435Z,26.77
2022-10-18T13:21:43.175Z,28.40
2022-10-18T13:24:27.711Z,26.65
2022-10-18T13:30:20.721Z,23.85
2022-10-18T13:32:54.925Z,22.77
2022-10-18T13:35:52.112Z,22.55
2022-10-18T13:38:33.813Z,22.20
2022-10-18T13:41:03.503Z,22.65
2022-10-18T13:44:21.087Z,22.70
2022-10-18T13:47:34.288Z,21.15
2022-10-18T13:50:16.481Z,19.80
2022-10-18T13:53:03.185Z,19.73
2022-10-18T13:55:45.539Z,19.40
2022-10-18T13:58:23.385Z,18.33
2022-10-18T14:01:03.841Z,16.25
2022-10-18T14:03:57.596Z,17.38
2022-10-18T14:06:29.920Z,15.77
2022-10-18T14:09:09.660Z,15.23
2022-10-18T14:11:53.531Z,15.23
2022-10-18T14:14:34.290Z,14.30
2022-10-18T14:17:17.775Z,12.50
2022-10-18T14:19:53.378Z,12.13
2022-10-18T14:22:28.051Z,11.07
2022-10-18T14:25:02.739Z,11.02
2022-10-18T14:27:42.069Z,10.50
2022-10-18T14:33:11.716Z,9.48
2022-10-18T14:35:55.358Z,8.90
2022-10-18T14:38:28.035Z,9.63
2022-10-18T14:41:18.738Z,10.23
2022-10-18T14:43:55.919Z,10.40
2022-10-18T14:46:49.886Z,10.77
2022-10-18T14:49:27.604Z,10.85
2022-10-18T14:52:03.779Z,11.15
2022-10-18T14:55:05.098Z,11.27
2022-10-18T14:57:43.820Z,10.75
2022-10-18T15:03:19.293Z,10.57
2022-10-18T15:08:54.856Z,7.05
2022-10-18T15:11:35.222Z,7.28
2022-10-18T15:14:16.189Z,7.80
2022-10-18T15:17:01.166Z,7.32
2022-10-18T15:19:33.841Z,8.50
2022-10-18T15:22:30.618Z,8.10
2022-10-18T15:25:34.723Z,9.00
2022-10-18T15:28:08.924Z,8.60
2022-10-18T15:30:44.466Z,9.68
2022-10-18T15:33:24.397Z,9.32
2022-10-18T15:35:55.045Z,8.70
2022-10-18T15:38:34.182Z,8.23
2022-10-18T15:41:04.966Z,6.93
2022-10-18T15:43:52.006Z,7.50
2022-10-18T15:46:35.592Z,7.35
2022-10-18T15:49:40.577Z,6.55
2022-10-18T15:52:43.595Z,6.68
2022-10-18T15:55:46.054Z,7.03
2022-10-18T15:58:18.179Z,6.82
2022-10-18T16:00:48.539Z,5.97
2022-10-18T16:03:17.668Z,7.35
2022-10-18T16:05:45.826Z,7.90
2022-10-18T16:08:21.851Z,7.03
2022-10-18T16:10:49.754Z,6.72
2022-10-18T16:13:17.495Z,7.78
2022-10-18T16:15:45.340Z,8.13
2022-10-18T16:18:18.473Z,7.88
2022-10-18T16:20:47.060Z,7.63
2022-10-18T16:23:21.506Z,7.45
2022-10-18T16:25:49.716Z,8.10
2022-10-18T16:28:19.303Z,7.28
2022-10-18T16:30:54.390Z,7.07
2022-10-18T16:33:23.886Z,7.70
2022-10-18T16:35:51.958Z,7.65
2022-10-18T16:38:32.519Z,7.47
2022-10-18T16:41:04.113Z,8.05
2022-10-18T16:43:32.166Z,7.25
2022-10-18T16:46:00.428Z,7.00
2022-10-18T16:48:32.048Z,7.10
2022-10-18T16:51:00.251Z,6.97
2022-10-18T16:53:28.753Z,6.85
2022-10-18T16:55:58.889Z,6.82
2022-10-18T16:58:28.300Z,6.80
2022-10-18T17:00:56.539Z,7.93
2022-10-18T17:03:24.695Z,6.93
2022-10-18T17:05:53.910Z,6.93
2022-10-18T17:08:23.861Z,7.40
2022-10-18T17:10:53.547Z,7.33
2022-10-18T17:13:21.832Z,7.72
2022-10-18T17:15:50.620Z,7.43
2022-10-18T17:18:21.769Z,7.57
2022-10-18T17:20:50.907Z,7.47
2022-10-18T17:23:20.020Z,7.90
2022-10-18T17:25:59.129Z,7.45
2022-10-18T17:28:35.166Z,7.43
2022-10-18T17:31:03.016Z,7.25
2022-10-18T17:33:30.846Z,6.88
2022-10-18T17:35:58.576Z,7.28
2022-10-18T17:38:27.696Z,7.25
2022-10-18T17:40:56.772Z,7.43
2022-10-18T17:43:24.666Z,6.90
2022-10-18T17:45:56.164Z,6.63
2022-10-18T17:48:24.916Z,7.22
2022-10-18T17:50:52.687Z,6.75
2022-10-18T17:53:22.889Z,6.90
2022-10-18T17:56:01.237Z,7.25
2022-10-18T17:58:30.007Z,7.93
2022-10-18T18:00:57.801Z,6.85
2022-10-18T18:03:25.518Z,6.82
2022-10-18T18:05:53.253Z,7.93
2022-10-18T18:08:20.924Z,8.03
2022-10-18T18:13:22.621Z,8.32
2022-10-18T18:15:50.331Z,7.90
2022-10-18T18:18:18.043Z,7.43
2022-10-18T18:20:53.340Z,8.00
2022-10-18T18:23:22.856Z,6.70
2022-10-18T18:25:56.492Z,8.20
2022-10-18T18:28:26.159Z,7.65
2022-10-18T18:30:53.955Z,8.32
2022-10-18T18:33:21.688Z,8.00
2022-10-18T18:35:56.219Z,7.73
2022-10-18T18:38:24.055Z,8.10
2022-10-18T18:40:52.015Z,7.43
2022-10-18T18:43:23.163Z,7.77
2022-10-18T18:45:53.019Z,7.50
2022-10-18T18:48:20.718Z,7.47
2022-10-18T18:50:50.572Z,8.10
2022-10-18T18:53:18.795Z,8.07
2022-10-18T18:55:47.727Z,7.97
2022-10-18T18:58:15.387Z,7.60
2022-10-18T19:00:44.617Z,9.10
2022-10-18T19:03:13.769Z,7.87
2022-10-18T19:05:41.585Z,8.47
2022-10-18T19:08:09.266Z,11.50
2022-10-18T19:10:36.998Z,9.50
2022-10-18T19:13:09.617Z,9.53
2022-10-18T19:15:37.426Z,8.67
2022-10-18T19:18:05.644Z,8.63
2022-10-18T19:20:34.708Z,7.60
2022-10-18T19:23:02.432Z,7.27
2022-10-18T19:25:30.349Z,7.97
2022-10-18T19:27:58.092Z,7.30
2022-10-18T19:30:25.946Z,7.30
2022-10-18T19:33:01.147Z,7.77
2022-10-18T19:35:31.250Z,9.33
2022-10-18T19:38:00.305Z,7.07
2022-10-18T19:40:28.010Z,8.30
2022-10-18T19:42:55.812Z,8.10
2022-10-18T19:45:23.651Z,8.15
2022-10-18T19:47:51.292Z,7.97
2022-10-18T19:50:19.967Z,7.53
2022-10-18T19:52:47.911Z,7.63
2022-10-18T19:55:19.695Z,8.10
2022-10-18T19:57:48.793Z,8.13
2022-10-18T20:00:19.422Z,7.60
2022-10-18T20:02:47.771Z,7.87
2022-10-18T20:05:15.544Z,7.87
2022-10-18T20:07:45.205Z,7.63
2022-10-18T20:10:13.140Z,7.67
2022-10-18T20:12:42.300Z,7.90
2022-10-18T20:15:11.304Z,7.70
2022-10-18T20:17:41.660Z,7.17
2022-10-18T20:20:10.477Z,7.40
2022-10-18T20:22:38.597Z,7.13
2022-10-18T20:25:11.890Z,6.93
2022-10-18T20:27:41.409Z,7.07
2022-10-18T20:30:11.674Z,6.73
2022-10-18T20:32:39.627Z,6.90
2022-10-18T20:35:07.844Z,7.00
2022-10-18T20:37:35.849Z,7.10
2022-10-18T20:40:03.723Z,6.60
2022-10-18T20:42:31.380Z,6.37
2022-10-18T20:44:59.094Z,6.33
2022-10-18T20:47:28.207Z,6.83
2022-10-18T20:49:55.917Z,6.80
2022-10-18T20:52:23.690Z,7.60
2022-10-18T20:54:51.451Z,6.93
2022-10-18T20:57:19.354Z,7.40
2022-10-18T20:59:47.084Z,7.17
2022-10-18T21:02:15.243Z,7.60
2022-10-18T21:04:44.368Z,6.90
2022-10-18T21:07:15.370Z,7.47
2022-10-18T21:09:43.062Z,7.50
2022-10-18T21:14:43.514Z,7.60
2022-10-18T21:17:11.279Z,7.13
2022-10-18T21:19:39.259Z,7.37
2022-10-18T21:22:08.427Z,7.10
2022-10-18T21:24:36.509Z,7.87
2022-10-18T21:27:07.539Z,8.50
2022-10-18T21:29:35.264Z,8.10
2022-10-18T21:32:03.162Z,8.23
2022-10-18T21:34:30.895Z,8.47
2022-10-18T21:36:58.876Z,8.50
2022-10-18T21:39:28.066Z,8.37
2022-10-18T21:41:55.790Z,7.33
2022-10-18T21:44:23.860Z,7.30
2022-10-18T21:46:52.288Z,8.13
2022-10-18T21:49:20.375Z,8.10
2022-10-18T21:51:48.075Z,7.07
2022-10-18T21:54:17.247Z,6.93
2022-10-18T21:56:46.433Z,8.13
2022-10-18T21:59:14.308Z,7.60
2022-10-18T22:01:43.540Z,8.07
2022-10-18T22:04:19.471Z,8.17
2022-10-18T22:06:47.337Z,7.33
2022-10-18T22:09:15.163Z,7.47
2022-10-18T22:11:45.510Z,8.43
2022-10-18T22:14:14.577Z,8.40
2022-10-18T22:16:42.380Z,8.07
2022-10-18T22:19:10.067Z,8.17
2022-10-18T22:21:37.865Z,7.50
2022-10-18T22:24:07.719Z,7.83
2022-10-18T22:26:37.075Z,8.63
2022-10-18T22:29:07.208Z,8.63
2022-10-18T22:31:38.317Z,7.70
2022-10-18T22:34:08.910Z,8.10
2022-10-18T22:36:36.966Z,7.10
2022-10-18T22:39:05.974Z,7.57
2022-10-18T22:41:34.008Z,7.17
2022-10-18T22:44:03.587Z,7.00
2022-10-18T22:46:32.414Z,7.50
2022-10-18T22:49:01.539Z,7.37
2022-10-18T22:51:29.314Z,6.67
2022-10-18T22:53:57.034Z,6.60
2022-10-18T22:56:25.083Z,7.60
2022-10-18T22:58:53.320Z,7.47
2022-10-18T23:01:23.059Z,8.17
2022-10-18T23:03:54.116Z,6.70
2022-10-18T23:06:25.287Z,7.97
2022-10-18T23:08:54.784Z,7.27
2022-10-18T23:11:23.448Z,6.87
2022-10-18T23:13:51.180Z,7.63
2022-10-18T23:16:19.219Z,6.50
2022-10-18T23:18:50.570Z,6.87
2022-10-18T23:21:18.306Z,6.50
2022-10-18T23:23:48.028Z,6.60
2022-10-18T23:26:18.614Z,7.00
2022-10-18T23:28:48.133Z,6.03
2022-10-18T23:31:18.834Z,6.23
2022-10-18T23:33:48.266Z,10.40
2022-10-18T23:36:16.742Z,8.37
2022-10-18T23:38:44.738Z,6.70
2022-10-18T23:41:15.718Z,6.60
2022-10-18T23:43:43.710Z,6.33
2022-10-18T23:46:12.277Z,6.33
2022-10-18T23:48:40.647Z,6.73
2022-10-18T23:51:08.799Z,7.17
2022-10-18T23:53:36.878Z,5.60
2022-10-18T23:56:06.586Z,6.67
2022-10-18T23:58:36.588Z,6.70
